Pendleton, OR

8:10 AM PDT on September 02, 2014 (GMT -0700)
Sun Ridge Estates | Change Station
CLOSE
Current Station
Personal Weather Station
Location: Pendleton, OR
Elevation: 1210 ft
Nearby Weather Stations

Elev 1210 ft 45.65 °N, 118.79 °W | Updated 8 minutes ago

Clear
Clear
59.2 °F
Feels Like 59.2 °F
N
0.0
Wind Variable Wind from WNW
Gusts 3.0 mph

Today
High -- | Low -- °F
--% Chance of Precip.
Yesterday
High -- | Low -- °F
Precip. -- in
6:17 AM 7:30 PM
First Quarter, 52% visible
Pressure 29.86 in
Visibility 10.0 miles
Clouds Clear
Dew Point 47 °F
Humidity 64%
Rainfall 0.00 in
Snow Depth Not available.
UV 1 out of 12
Pollen 5.80 out of 12
Air Quality Not available.
Flu Activity Not available.
METAR KPDT 021453Z 16007KT 10SM CLR 15/06 A2989 RMK AO2 SLP109 T01500061 58005

More Conditions Fewer Conditions

Pressure 29.86 in
Visibility 10.0 miles
Clouds Clear
Dew Point 47 °F
Humidity 64%
Rainfall 0.00 in
Snow Depth Not available.
UV 1 out of 12
Pollen 5.80 out of 12
Air Quality Not available.
Flu Activity Not available.
METAR KPDT 021453Z 16007KT 10SM CLR 15/06 A2989 RMK AO2 SLP109 T01500061 58005

More Conditions Fewer Conditions

10-Day Weather Forecast

Almanac

Astronomy

Sep. 02, 2014 Rise Set
Actual Time 6:17 AM PDT 7:30 PM PDT
Civil Twilight 5:47 AM PDT 8:01 PM PDT
Nautical Twilight 5:10 AM PDT 8:38 PM PDT
Astronomical Twilight 4:31 AM PDT 9:16 PM PDT
Moon 2:28 PM PDT No Moon Set
Length of Visible Light 14h 14m
Length of Day
13h 13m
Tomorrow will be 3m 7s shorter.
First Quarter, 52% of the Moon is Illuminated
Today
First Quarter
Sep 8
Full
Sep 15
Last Quarter
Sep 24
New
Oct 1
First Quarter

Today's Extremes

State Highs State Lows

Community

WunderPhotos

Upload Photos

1,749,690 photos uploaded!

WunderBlogs® & News

Nearby

Snow Depth

Station Depth Elevation
Lucky Strike 1 in 5050 ft
High Ridge 0 in 4980 ft
Arbuckle Mountain 0 in 5400 ft
Madison Butte 0 in 5250 ft
Bourne 0 in 5800 ft

Earthquake Activity

City Distance Mag. Time & Date
No recent earthquake activity has been reported nearby.
Minimum magnitude displayed is 2.5.

Coastal Water Temperatures

Place Temperature
No Stations Reporting

Nearby Weather Stations